Time;durP1;ratioP1;P1;durP2;ratioP2;P2;SDS_P1;SDS_P2;PMS_P1;PMS_P2;Temp;Humidity;BMP_temperature;BMP_pressure;BME280_temperature;BME280_humidity;BME280_pressure;Samples;Min_cycle;Max_cycle;Signal;HPM_P1;HPM_P2
2022/11/03 00:02:10;;;;;;;0.60;0.60;;;;;;;;;;1839384;75;26637;-88
2022/11/03 00:04:37;;;;;;;0.68;0.68;;;;;;;;;;1856723;75;26821;-88
2022/11/03 00:07:04;;;;;;;0.62;0.62;;;;;;;;;;1868220;75;26552;-88
2022/11/03 00:09:31;;;;;;;0.50;0.50;;;;;;;;;;1855709;75;26247;-89
2022/11/03 00:12:00;;;;;;;0.60;0.60;;;;;;;;;;1856781;75;26217;-89
2022/11/03 00:14:28;;;;;;;0.60;0.60;;;;;;;;;;1858167;75;25717;-89
2022/11/03 00:16:55;;;;;;;0.60;0.60;;;;;;;;;;1848350;76;26672;-88
2022/11/03 00:19:22;;;;;;;0.60;0.60;;;;;;;;;;1856154;75;26328;-87
2022/11/03 00:21:49;;;;;;;0.65;0.65;;;;;;;;;;1848966;77;26237;-88
2022/11/03 00:24:17;;;;;;;0.68;0.68;;;;;;;;;;1845780;77;26256;-88
2022/11/03 00:26:44;;;;;;;0.50;0.50;;;;;;;;;;1860977;75;26288;-88
2022/11/03 00:29:12;;;;;;;0.60;0.60;;;;;;;;;;1843831;75;26899;-88
2022/11/03 00:31:41;;;;;;;0.50;0.50;;;;;;;;;;1861078;77;25769;-88
2022/11/03 00:34:09;;;;;;;0.57;0.57;;;;;;;;;;1861014;77;26327;-88
2022/11/03 00:36:38;;;;;;;0.60;0.60;;;;;;;;;;1859543;77;26281;-88
2022/11/03 00:39:05;;;;;;;0.70;0.70;;;;;;;;;;1862093;75;26198;-89
2022/11/03 00:41:33;;;;;;;0.60;0.60;;;;;;;;;;1863566;75;26319;-88
2022/11/03 00:44:00;;;;;;;0.50;0.50;;;;;;;;;;1860719;75;26691;-89
2022/11/03 00:46:29;;;;;;;0.50;0.50;;;;;;;;;;1844685;75;26283;-88
2022/11/03 00:48:56;;;;;;;0.60;0.60;;;;;;;;;;1849591;77;26731;-88
2022/11/03 00:51:25;;;;;;;0.60;0.60;;;;;;;;;;1843850;76;26256;-89
2022/11/03 00:53:53;;;;;;;0.75;0.75;;;;;;;;;;1862405;75;26299;-89
2022/11/03 00:56:24;;;;;;;0.50;0.50;;;;;;;;;;1847654;75;26241;-88
2022/11/03 00:58:52;;;;;;;0.55;0.55;;;;;;;;;;1852372;75;26260;-88
2022/11/03 01:01:20;;;;;;;0.53;0.53;;;;;;;;;;1848712;77;26242;-88
2022/11/03 01:06:50;;;;;;;0.55;0.55;;;;;;;;;;1842630;75;26352;-89
2022/11/03 01:09:28;;;;;;;0.50;0.50;;;;;;;;;;1858186;75;26727;-89
2022/11/03 01:12:00;;;;;;;0.60;0.60;;;;;;;;;;1830497;75;26788;-89
2022/11/03 01:14:29;;;;;;;0.60;0.60;;;;;;;;;;1852628;75;26274;-87
2022/11/03 01:16:56;;;;;;;0.57;0.57;;;;;;;;;;1839485;75;26693;-90
2022/11/03 01:19:24;;;;;;;0.50;0.50;;;;;;;;;;1853373;75;26311;-88
2022/11/03 01:21:52;;;;;;;0.60;0.60;;;;;;;;;;1849842;77;26216;-87
2022/11/03 01:24:20;;;;;;;0.60;0.60;;;;;;;;;;1849109;75;26241;-88
2022/11/03 01:26:47;;;;;;;0.57;0.57;;;;;;;;;;1831554;75;26292;-88
2022/11/03 01:29:15;;;;;;;0.50;0.50;;;;;;;;;;1859881;75;26316;-89
2022/11/03 01:31:42;;;;;;;0.57;0.57;;;;;;;;;;1861588;77;26662;-88
2022/11/03 01:34:11;;;;;;;0.70;0.70;;;;;;;;;;1850986;75;26551;-89
2022/11/03 01:36:38;;;;;;;0.60;0.60;;;;;;;;;;1845123;76;26286;-89
2022/11/03 01:39:05;;;;;;;0.60;0.60;;;;;;;;;;1865049;75;26250;-89
2022/11/03 01:41:33;;;;;;;0.60;0.60;;;;;;;;;;1837399;75;26322;-89
2022/11/03 01:44:07;;;;;;;0.53;0.53;;;;;;;;;;1842780;77;26777;-88
2022/11/03 01:46:48;;;;;;;0.60;0.60;;;;;;;;;;1842256;77;26808;-89
2022/11/03 01:49:20;;;;;;;0.55;0.55;;;;;;;;;;1821961;77;26342;-89
2022/11/03 01:51:49;;;;;;;0.60;0.60;;;;;;;;;;1864427;75;25194;-91
2022/11/03 01:54:18;;;;;;;0.50;0.50;;;;;;;;;;1830806;75;26346;-89
2022/11/03 01:56:50;;;;;;;0.60;0.60;;;;;;;;;;1852709;76;25751;-89
2022/11/03 01:59:18;;;;;;;0.50;0.50;;;;;;;;;;1861066;75;26828;-87
2022/11/03 02:01:45;;;;;;;0.45;0.45;;;;;;;;;;1840443;75;26319;-89
2022/11/03 02:04:14;;;;;;;0.50;0.50;;;;;;;;;;1863224;75;26241;-89
2022/11/03 02:06:42;;;;;;;0.70;0.60;;;;;;;;;;1863351;75;26687;-88
2022/11/03 02:09:10;;;;;;;0.60;0.60;;;;;;;;;;1863039;75;25595;-90
2022/11/03 02:14:23;;;;;;;0.70;0.70;;;;;;;;;;1864218;75;26365;-89
2022/11/03 02:16:52;;;;;;;0.68;0.68;;;;;;;;;;1851940;75;26193;-88
2022/11/03 02:19:20;;;;;;;0.50;0.50;;;;;;;;;;1852730;77;26304;-87
2022/11/03 02:21:49;;;;;;;0.70;0.70;;;;;;;;;;1845715;75;26713;-89
2022/11/03 02:24:36;;;;;;;0.60;0.60;;;;;;;;;;1839168;77;26273;-88
2022/11/03 02:27:03;;;;;;;0.50;0.50;;;;;;;;;;1852864;75;25293;-90
2022/11/03 02:29:30;;;;;;;0.60;0.60;;;;;;;;;;1839285;76;26327;-89
2022/11/03 02:31:59;;;;;;;0.60;0.60;;;;;;;;;;1853338;75;26252;-88
2022/11/03 02:34:31;;;;;;;0.50;0.50;;;;;;;;;;1851335;75;26288;-89
2022/11/03 02:37:00;;;;;;;0.50;0.50;;;;;;;;;;1859357;77;26281;-88
2022/11/03 02:39:44;;;;;;;0.50;0.50;;;;;;;;;;1842606;75;25696;-88
2022/11/03 02:42:11;;;;;;;0.40;0.40;;;;;;;;;;1843262;77;26253;-89
2022/11/03 02:44:39;;;;;;;0.60;0.60;;;;;;;;;;1844340;75;26934;-89
2022/11/03 02:47:08;;;;;;;0.40;0.40;;;;;;;;;;1826169;75;26255;-88
2022/11/03 02:49:48;;;;;;;0.40;0.40;;;;;;;;;;1852694;75;26257;-91
2022/11/03 02:52:35;;;;;;;0.40;0.40;;;;;;;;;;1844924;77;26344;-88
2022/11/03 02:55:04;;;;;;;0.62;0.62;;;;;;;;;;1843560;75;26289;-88
2022/11/03 02:57:33;;;;;;;0.57;0.57;;;;;;;;;;1862049;75;26262;-88
2022/11/03 03:00:02;;;;;;;0.50;0.50;;;;;;;;;;1849809;77;26240;-89
2022/11/03 03:02:31;;;;;;;0.40;0.40;;;;;;;;;;1836723;76;26257;-88
2022/11/03 03:05:00;;;;;;;0.50;0.50;;;;;;;;;;1846634;77;26257;-89
2022/11/03 03:07:28;;;;;;;0.40;0.40;;;;;;;;;;1849834;75;26351;-89
2022/11/03 03:10:06;;;;;;;0.50;0.50;;;;;;;;;;1853141;75;26249;-88
2022/11/03 03:12:35;;;;;;;0.47;0.47;;;;;;;;;;1858293;75;26698;-89
2022/11/03 03:15:04;;;;;;;0.55;0.55;;;;;;;;;;1865267;75;26607;-87
2022/11/03 03:17:42;;;;;;;0.70;0.70;;;;;;;;;;1836440;77;26232;-89
2022/11/03 03:20:13;;;;;;;0.42;0.42;;;;;;;;;;1851961;75;26707;-89
2022/11/03 03:22:41;;;;;;;0.50;0.50;;;;;;;;;;1850660;76;26341;-89
2022/11/03 03:25:10;;;;;;;0.55;0.55;;;;;;;;;;1851032;75;26242;-89
2022/11/03 03:27:39;;;;;;;0.40;0.40;;;;;;;;;;1856752;75;26304;-88
2022/11/03 03:30:07;;;;;;;0.50;0.50;;;;;;;;;;1861057;76;26191;-90
2022/11/03 03:32:36;;;;;;;0.60;0.60;;;;;;;;;;1855009;75;25647;-90
2022/11/03 03:35:06;;;;;;;0.40;0.40;;;;;;;;;;1852342;75;26856;-89
2022/11/03 03:37:35;;;;;;;0.40;0.40;;;;;;;;;;1833985;75;26319;-89
2022/11/03 03:40:03;;;;;;;0.50;0.50;;;;;;;;;;1870067;75;26279;-92
2022/11/03 03:42:32;;;;;;;0.57;0.57;;;;;;;;;;1877781;74;26333;-90
2022/11/03 03:44:59;;;;;;;0.50;0.50;;;;;;;;;;1853275;74;26255;-91
2022/11/03 03:47:28;;;;;;;0.50;0.50;;;;;;;;;;1850844;75;26375;-90
2022/11/03 03:49:56;;;;;;;0.50;0.50;;;;;;;;;;1856064;75;26248;-88
2022/11/03 03:52:24;;;;;;;0.45;0.45;;;;;;;;;;1855724;76;26543;-88
2022/11/03 03:54:51;;;;;;;0.60;0.60;;;;;;;;;;1876807;75;26295;-89
2022/11/03 03:57:20;;;;;;;0.50;0.50;;;;;;;;;;1873539;75;26191;-87
2022/11/03 03:59:48;;;;;;;0.70;0.70;;;;;;;;;;1855989;76;26253;-90
2022/11/03 04:02:15;;;;;;;0.50;0.50;;;;;;;;;;1856532;77;26226;-88
2022/11/03 04:04:42;;;;;;;0.55;0.55;;;;;;;;;;1853010;76;26270;-88
2022/11/03 04:09:56;;;;;;;0.57;0.57;;;;;;;;;;1852872;75;26375;-88
2022/11/03 04:23:28;;;;;;;0.40;0.40;;;;;;;;;;1856269;75;26386;-88
2022/11/03 04:25:56;;;;;;;0.50;0.50;;;;;;;;;;1864328;75;26186;-92
2022/11/03 04:28:26;;;;;;;0.47;0.47;;;;;;;;;;1870834;76;26286;-91
2022/11/03 04:30:54;;;;;;;0.40;0.40;;;;;;;;;;1842415;76;26294;-88
2022/11/03 04:33:22;;;;;;;0.40;0.40;;;;;;;;;;1848827;76;26213;-87
2022/11/03 04:35:49;;;;;;;0.35;0.35;;;;;;;;;;1866803;75;26242;-87
2022/11/03 04:38:18;;;;;;;0.50;0.50;;;;;;;;;;1866820;75;25221;-87
2022/11/03 04:40:55;;;;;;;0.50;0.50;;;;;;;;;;1871504;76;26230;-89
2022/11/03 04:43:23;;;;;;;0.40;0.40;;;;;;;;;;1850789;77;26821;-88
2022/11/03 04:45:51;;;;;;;0.50;0.50;;;;;;;;;;1862870;75;26232;-89
2022/11/03 04:48:19;;;;;;;0.30;0.30;;;;;;;;;;1866789;76;26308;-87
2022/11/03 04:50:47;;;;;;;0.55;0.55;;;;;;;;;;1854379;75;26320;-88
2022/11/03 04:53:18;;;;;;;0.50;0.50;;;;;;;;;;1850921;75;26334;-88
2022/11/03 04:55:46;;;;;;;0.50;0.50;;;;;;;;;;1864600;76;26260;-88
2022/11/03 04:58:15;;;;;;;0.45;0.45;;;;;;;;;;1866919;76;26291;-88
2022/11/03 05:00:42;;;;;;;0.37;0.37;;;;;;;;;;1864513;76;26339;-90
2022/11/03 05:03:14;;;;;;;0.40;0.40;;;;;;;;;;1861398;75;26297;-89
2022/11/03 05:05:41;;;;;;;0.40;0.40;;;;;;;;;;1865102;76;26886;-88
2022/11/03 05:08:09;;;;;;;0.88;0.40;;;;;;;;;;1862840;76;26648;-88
2022/11/03 05:10:36;;;;;;;0.40;0.40;;;;;;;;;;1848871;75;26288;-88
2022/11/03 05:13:05;;;;;;;0.47;0.47;;;;;;;;;;1865066;75;26627;-89
2022/11/03 05:15:37;;;;;;;0.40;0.40;;;;;;;;;;1877838;76;26329;-92
2022/11/03 05:18:06;;;;;;;0.40;0.40;;;;;;;;;;1869475;76;26342;-90
2022/11/03 05:20:35;;;;;;;0.40;0.40;;;;;;;;;;1864589;75;26250;-87
2022/11/03 05:23:02;;;;;;;0.40;0.40;;;;;;;;;;1866677;76;26257;-88
2022/11/03 05:25:38;;;;;;;0.53;0.53;;;;;;;;;;1872417;75;26315;-87
2022/11/03 05:28:06;;;;;;;0.50;0.50;;;;;;;;;;1844057;76;26304;-89
2022/11/03 05:30:34;;;;;;;0.40;0.40;;;;;;;;;;1854891;75;26610;-88
2022/11/03 05:33:01;;;;;;;0.35;0.35;;;;;;;;;;1850940;75;26194;-88
2022/11/03 05:35:28;;;;;;;0.30;0.30;;;;;;;;;;1872386;75;26261;-89
2022/11/03 05:37:55;;;;;;;0.30;0.30;;;;;;;;;;1875037;75;27155;-88
2022/11/03 05:40:24;;;;;;;0.30;0.30;;;;;;;;;;1870715;76;27503;-88
2022/11/03 05:42:52;;;;;;;0.40;0.40;;;;;;;;;;1862985;76;25218;-90
2022/11/03 05:45:24;;;;;;;0.30;0.30;;;;;;;;;;1863557;75;26261;-88
2022/11/03 05:47:55;;;;;;;0.50;0.50;;;;;;;;;;1872541;75;26242;-90
2022/11/03 05:50:24;;;;;;;0.50;0.50;;;;;;;;;;1870633;75;26235;-91
2022/11/03 05:52:53;;;;;;;0.60;0.60;;;;;;;;;;1857780;75;26346;-87
2022/11/03 05:55:28;;;;;;;0.50;0.50;;;;;;;;;;1871564;75;26811;-88
2022/11/03 05:57:57;;;;;;;0.50;0.50;;;;;;;;;;1856511;75;26697;-87
2022/11/03 06:00:31;;;;;;;0.40;0.40;;;;;;;;;;1861935;75;26553;-88
2022/11/03 06:02:59;;;;;;;0.45;0.45;;;;;;;;;;1871108;75;26549;-88
2022/11/03 06:05:27;;;;;;;0.30;0.30;;;;;;;;;;1876884;75;25650;-88
2022/11/03 06:07:55;;;;;;;0.30;0.30;;;;;;;;;;1844643;75;26260;-88
2022/11/03 06:10:28;;;;;;;0.40;0.40;;;;;;;;;;1873282;76;26783;-89
2022/11/03 06:13:02;;;;;;;0.40;0.40;;;;;;;;;;1857238;75;26257;-90
2022/11/03 06:15:31;;;;;;;0.40;0.40;;;;;;;;;;1868606;75;26253;-88
2022/11/03 06:17:59;;;;;;;0.45;0.45;;;;;;;;;;1853205;75;26672;-89
2022/11/03 06:20:27;;;;;;;0.40;0.40;;;;;;;;;;1873183;75;26531;-87
2022/11/03 06:22:55;;;;;;;0.55;0.47;;;;;;;;;;1875706;75;26241;-88
2022/11/03 06:25:24;;;;;;;0.42;0.42;;;;;;;;;;1852862;75;26268;-88
2022/11/03 06:27:52;;;;;;;0.30;0.30;;;;;;;;;;1874217;76;26245;-88
2022/11/03 06:30:27;;;;;;;0.42;0.42;;;;;;;;;;1824954;77;26229;-88
2022/11/03 06:32:55;;;;;;;0.50;0.50;;;;;;;;;;1820145;78;26236;-87
2022/11/03 06:35:22;;;;;;;0.50;0.50;;;;;;;;;;1795735;78;26346;-87
2022/11/03 06:37:50;;;;;;;0.53;0.53;;;;;;;;;;1823602;77;26244;-87
2022/11/03 06:40:19;;;;;;;0.45;0.45;;;;;;;;;;1807501;78;26251;-89
2022/11/03 06:42:46;;;;;;;0.60;0.60;;;;;;;;;;1824301;77;26513;-87
2022/11/03 06:45:21;;;;;;;0.50;0.50;;;;;;;;;;1825348;77;26276;-88
2022/11/03 06:47:49;;;;;;;0.47;0.47;;;;;;;;;;1815007;77;26301;-88
2022/11/03 06:50:24;;;;;;;0.60;0.60;;;;;;;;;;1797325;77;26288;-88
2022/11/03 06:52:52;;;;;;;0.40;0.40;;;;;;;;;;1827785;77;26315;-88
2022/11/03 06:55:30;;;;;;;0.50;0.50;;;;;;;;;;1804606;77;27181;-91
2022/11/03 06:57:59;;;;;;;0.50;0.50;;;;;;;;;;1822534;78;26702;-88
2022/11/03 07:00:27;;;;;;;0.50;0.50;;;;;;;;;;1823612;78;26738;-91
2022/11/03 07:02:56;;;;;;;0.40;0.40;;;;;;;;;;1819932;77;26558;-88
2022/11/03 07:05:25;;;;;;;0.40;0.40;;;;;;;;;;1820470;77;26252;-88
2022/11/03 07:07:54;;;;;;;0.50;0.50;;;;;;;;;;1807960;78;26251;-88
2022/11/03 07:10:23;;;;;;;0.40;0.40;;;;;;;;;;1820848;77;26248;-88
2022/11/03 07:12:50;;;;;;;0.60;0.60;;;;;;;;;;1821970;78;26206;-88
2022/11/03 07:15:26;;;;;;;3.72;0.55;;;;;;;;;;1808437;77;27029;-90
2022/11/03 07:17:53;;;;;;;0.50;0.50;;;;;;;;;;1804263;77;26743;-88
2022/11/03 07:20:21;;;;;;;0.50;0.50;;;;;;;;;;1806747;78;26241;-89
2022/11/03 07:22:48;;;;;;;0.50;0.50;;;;;;;;;;1823352;78;26640;-87
2022/11/03 07:25:18;;;;;;;0.50;0.50;;;;;;;;;;1817541;77;26685;-87
2022/11/03 07:27:46;;;;;;;0.50;0.50;;;;;;;;;;1824325;77;26225;-87
2022/11/03 07:30:15;;;;;;;0.42;0.42;;;;;;;;;;1844075;75;26297;-88
2022/11/03 07:32:42;;;;;;;0.50;0.50;;;;;;;;;;1849067;75;26230;-91
2022/11/03 07:35:11;;;;;;;0.40;0.40;;;;;;;;;;1864094;75;26262;-88
2022/11/03 07:37:38;;;;;;;0.50;0.50;;;;;;;;;;1840093;76;26243;-88
2022/11/03 07:40:07;;;;;;;0.55;0.55;;;;;;;;;;1866052;75;26238;-88
2022/11/03 07:42:34;;;;;;;0.50;0.50;;;;;;;;;;1860075;75;26315;-87
2022/11/03 07:45:02;;;;;;;0.50;0.50;;;;;;;;;;1861002;77;26312;-89
2022/11/03 07:47:29;;;;;;;0.40;0.40;;;;;;;;;;1848855;76;26270;-89
2022/11/03 07:49:56;;;;;;;0.33;0.33;;;;;;;;;;1843878;76;26601;-87
2022/11/03 07:52:24;;;;;;;0.50;0.50;;;;;;;;;;1852218;75;26358;-87
2022/11/03 07:54:53;;;;;;;0.57;0.57;;;;;;;;;;1848123;77;26254;-87
2022/11/03 07:57:32;;;;;;;0.55;0.45;;;;;;;;;;1884682;75;25668;-88
2022/11/03 07:59:58;;;;;;;0.50;0.50;;;;;;;;;;1859492;75;26379;-88
2022/11/03 08:02:30;;;;;;;0.80;0.50;;;;;;;;;;1860992;75;26241;-89
2022/11/03 08:04:58;;;;;;;0.40;0.40;;;;;;;;;;1858030;77;26253;-90
2022/11/03 08:07:26;;;;;;;0.40;0.40;;;;;;;;;;1831246;77;26809;-89
2022/11/03 08:09:54;;;;;;;0.50;0.50;;;;;;;;;;1855454;75;26904;-88
2022/11/03 08:12:22;;;;;;;0.60;0.60;;;;;;;;;;1862349;75;26309;-90
2022/11/03 08:14:49;;;;;;;0.50;0.50;;;;;;;;;;1866350;75;26717;-88
2022/11/03 08:17:16;;;;;;;0.40;0.40;;;;;;;;;;1861443;77;26718;-88
2022/11/03 08:19:43;;;;;;;0.55;0.55;;;;;;;;;;1859689;75;26771;-88
2022/11/03 08:22:11;;;;;;;0.50;0.50;;;;;;;;;;1846527;75;26330;-89
2022/11/03 08:24:38;;;;;;;0.40;0.40;;;;;;;;;;1847859;75;25215;-88
2022/11/03 08:27:05;;;;;;;0.50;0.50;;;;;;;;;;1856992;75;26186;-90
2022/11/03 08:29:32;;;;;;;0.45;0.45;;;;;;;;;;1851012;76;26360;-91
2022/11/03 08:32:00;;;;;;;0.55;0.55;;;;;;;;;;1803523;77;26336;-88
2022/11/03 08:34:27;;;;;;;0.42;0.42;;;;;;;;;;1818897;78;26953;-87
2022/11/03 08:36:54;;;;;;;0.50;0.50;;;;;;;;;;1804106;77;26261;-88
2022/11/03 08:39:22;;;;;;;0.50;0.50;;;;;;;;;;1800791;77;26282;-88
2022/11/03 08:41:49;;;;;;;0.50;0.50;;;;;;;;;;1816459;77;27594;-90
2022/11/03 08:44:16;;;;;;;0.50;0.50;;;;;;;;;;1809442;77;27126;-88
2022/11/03 08:46:43;;;;;;;0.40;0.40;;;;;;;;;;1836735;78;26778;-90
2022/11/03 08:49:11;;;;;;;0.40;0.40;;;;;;;;;;1816900;77;26653;-90
2022/11/03 08:51:38;;;;;;;0.50;0.50;;;;;;;;;;1827815;77;26322;-90
2022/11/03 08:54:05;;;;;;;0.40;0.40;;;;;;;;;;1820999;77;26349;-91
2022/11/03 08:56:32;;;;;;;0.33;0.33;;;;;;;;;;1811952;77;26258;-89
2022/11/03 08:59:00;;;;;;;0.50;0.50;;;;;;;;;;1807969;77;26318;-89
2022/11/03 09:01:27;;;;;;;0.40;0.40;;;;;;;;;;1798308;77;26361;-89
2022/11/03 09:03:54;;;;;;;0.33;0.33;;;;;;;;;;1809065;77;26239;-89
2022/11/03 09:06:21;;;;;;;0.40;0.40;;;;;;;;;;1828376;77;26279;-89
2022/11/03 09:08:49;;;;;;;0.45;0.45;;;;;;;;;;1817930;78;26312;-88
2022/11/03 09:11:16;;;;;;;0.33;0.33;;;;;;;;;;1822382;77;26261;-89
2022/11/03 09:13:43;;;;;;;0.40;0.40;;;;;;;;;;1828668;77;26205;-89
2022/11/03 09:16:10;;;;;;;0.50;0.50;;;;;;;;;;1809110;77;26325;-90
2022/11/03 09:18:38;;;;;;;0.40;0.40;;;;;;;;;;1818705;78;26384;-90
2022/11/03 09:21:05;;;;;;;0.50;0.50;;;;;;;;;;1819137;78;25610;-89
2022/11/03 09:23:32;;;;;;;0.50;0.50;;;;;;;;;;1803623;77;26293;-88
2022/11/03 09:26:00;;;;;;;0.33;0.33;;;;;;;;;;1798897;77;26215;-90
2022/11/03 09:28:27;;;;;;;0.50;0.50;;;;;;;;;;1821477;77;26337;-88
2022/11/03 09:30:55;;;;;;;0.40;0.40;;;;;;;;;;1850517;75;26222;-88
2022/11/03 09:33:22;;;;;;;0.40;0.40;;;;;;;;;;1862425;75;27128;-88
2022/11/03 09:35:49;;;;;;;0.40;0.40;;;;;;;;;;1872799;75;26784;-89
2022/11/03 09:38:16;;;;;;;1.20;0.50;;;;;;;;;;1848928;77;26610;-90
2022/11/03 09:40:44;;;;;;;0.47;0.47;;;;;;;;;;1855215;76;26271;-92
2022/11/03 09:43:11;;;;;;;0.40;0.40;;;;;;;;;;1849706;76;26198;-90
2022/11/03 09:45:39;;;;;;;0.40;0.40;;;;;;;;;;1859751;75;26292;-88
2022/11/03 09:48:07;;;;;;;0.50;0.50;;;;;;;;;;1863554;76;26502;-89
2022/11/03 09:50:36;;;;;;;0.50;0.50;;;;;;;;;;1866439;75;26353;-88
2022/11/03 09:53:03;;;;;;;0.65;0.65;;;;;;;;;;1867053;77;26230;-91
2022/11/03 09:55:32;;;;;;;0.47;0.47;;;;;;;;;;1867362;75;26315;-91
2022/11/03 09:58:01;;;;;;;0.42;0.42;;;;;;;;;;1864950;75;26300;-88
2022/11/03 10:00:28;;;;;;;0.47;0.47;;;;;;;;;;1868500;75;26313;-93
2022/11/03 10:02:56;;;;;;;0.50;0.50;;;;;;;;;;1872574;75;25206;-93
2022/11/03 10:05:24;;;;;;;0.65;0.60;;;;;;;;;;1863935;75;26391;-91
2022/11/03 10:07:53;;;;;;;0.42;0.42;;;;;;;;;;1838895;75;26272;-90
2022/11/03 10:10:21;;;;;;;0.50;0.50;;;;;;;;;;1873380;76;26247;-88
2022/11/03 10:12:50;;;;;;;0.62;0.62;;;;;;;;;;1847994;75;26823;-89
2022/11/03 10:15:18;;;;;;;0.37;0.37;;;;;;;;;;1872158;75;26579;-88
2022/11/03 10:17:46;;;;;;;0.50;0.50;;;;;;;;;;1833921;76;26272;-89
2022/11/03 10:20:14;;;;;;;0.28;0.28;;;;;;;;;;1839139;77;26205;-89
2022/11/03 10:22:43;;;;;;;0.40;0.40;;;;;;;;;;1846002;75;26287;-93
2022/11/03 10:25:29;;;;;;;0.42;0.42;;;;;;;;;;1843309;76;26697;-89
2022/11/03 10:28:13;;;;;;;0.40;0.40;;;;;;;;;;1848960;75;25288;-89
2022/11/03 10:30:45;;;;;;;0.50;0.50;;;;;;;;;;1846926;75;26286;-88
2022/11/03 10:33:26;;;;;;;0.37;0.37;;;;;;;;;;1846563;75;26233;-88
2022/11/03 10:35:55;;;;;;;0.50;0.50;;;;;;;;;;1859967;75;26234;-89
2022/11/03 10:38:32;;;;;;;0.40;0.40;;;;;;;;;;1856156;75;26754;-88
2022/11/03 10:41:01;;;;;;;0.40;0.40;;;;;;;;;;1837231;75;26248;-89
2022/11/03 10:43:28;;;;;;;0.37;0.37;;;;;;;;;;1818522;76;26255;-87
2022/11/03 10:45:57;;;;;;;0.30;0.30;;;;;;;;;;1868805;76;26218;-89
2022/11/03 10:48:25;;;;;;;0.47;0.47;;;;;;;;;;1845621;76;26302;-89
2022/11/03 10:50:52;;;;;;;0.45;0.45;;;;;;;;;;1839048;76;26666;-89
2022/11/03 10:53:20;;;;;;;0.45;0.45;;;;;;;;;;1859305;75;26252;-89
2022/11/03 10:55:48;;;;;;;0.50;0.50;;;;;;;;;;1864728;75;26852;-88
2022/11/03 10:58:15;;;;;;;0.60;0.60;;;;;;;;;;1858982;76;26381;-90
2022/11/03 11:00:42;;;;;;;0.65;0.50;;;;;;;;;;1867361;76;26683;-88
2022/11/03 11:03:11;;;;;;;0.40;0.40;;;;;;;;;;1863801;77;26253;-92
2022/11/03 11:05:45;;;;;;;0.20;0.20;;;;;;;;;;1849408;77;26218;-90
2022/11/03 11:08:14;;;;;;;0.47;0.47;;;;;;;;;;1868172;75;26234;-88
2022/11/03 11:10:45;;;;;;;0.30;0.30;;;;;;;;;;1866869;75;26236;-88
2022/11/03 11:13:23;;;;;;;0.50;0.50;;;;;;;;;;1860701;75;26217;-89
2022/11/03 11:15:52;;;;;;;0.40;0.40;;;;;;;;;;1848388;76;26347;-88
2022/11/03 11:18:30;;;;;;;0.50;0.50;;;;;;;;;;1863032;75;25906;-91
2022/11/03 11:20:58;;;;;;;0.40;0.40;;;;;;;;;;1858952;76;25665;-88
2022/11/03 11:23:30;;;;;;;0.30;0.30;;;;;;;;;;1865049;76;26253;-89
2022/11/03 11:26:11;;;;;;;0.40;0.40;;;;;;;;;;1847550;75;25279;-88
2022/11/03 11:28:39;;;;;;;0.40;0.40;;;;;;;;;;1861074;77;26253;-88
2022/11/03 11:31:24;;;;;;;0.40;0.40;;;;;;;;;;1849976;75;26313;-90
2022/11/03 11:33:53;;;;;;;0.42;0.42;;;;;;;;;;1809012;77;26918;-89
2022/11/03 11:36:22;;;;;;;0.30;0.30;;;;;;;;;;1780500;77;25730;-87
2022/11/03 11:38:51;;;;;;;0.40;0.40;;;;;;;;;;1829541;77;26693;-87
2022/11/03 11:41:19;;;;;;;0.30;0.30;;;;;;;;;;1813120;77;26271;-87
2022/11/03 11:43:47;;;;;;;0.40;0.40;;;;;;;;;;1810825;77;26732;-88
2022/11/03 11:46:21;;;;;;;0.30;0.30;;;;;;;;;;1812834;77;26279;-87
2022/11/03 11:48:56;;;;;;;0.33;0.33;;;;;;;;;;1822098;77;26331;-87
2022/11/03 11:51:24;;;;;;;0.35;0.35;;;;;;;;;;1805921;77;26946;-89
2022/11/03 11:53:52;;;;;;;0.40;0.40;;;;;;;;;;1797968;77;26326;-87
2022/11/03 11:56:19;;;;;;;0.40;0.40;;;;;;;;;;1801371;77;26345;-87
2022/11/03 11:58:48;;;;;;;0.30;0.30;;;;;;;;;;1819409;77;26839;-88
2022/11/03 12:01:23;;;;;;;0.50;0.50;;;;;;;;;;1822775;77;26259;-87
2022/11/03 12:03:51;;;;;;;0.40;0.40;;;;;;;;;;1816482;77;26349;-88
2022/11/03 12:06:20;;;;;;;0.57;0.57;;;;;;;;;;1817182;77;26321;-91
2022/11/03 12:08:47;;;;;;;0.47;0.47;;;;;;;;;;1795676;77;26243;-88
2022/11/03 12:11:14;;;;;;;0.47;0.47;;;;;;;;;;1813374;77;26811;-87
2022/11/03 12:13:43;;;;;;;0.40;0.40;;;;;;;;;;1815202;77;26770;-88
2022/11/03 12:16:12;;;;;;;0.40;0.40;;;;;;;;;;1813685;77;26240;-88
2022/11/03 12:18:40;;;;;;;0.45;0.37;;;;;;;;;;1808723;77;26333;-88
2022/11/03 12:21:09;;;;;;;0.42;0.42;;;;;;;;;;1823520;77;26711;-88
2022/11/03 12:23:38;;;;;;;0.42;0.42;;;;;;;;;;1814321;77;26233;-88
2022/11/03 12:26:06;;;;;;;0.40;0.40;;;;;;;;;;1812073;77;26814;-87
2022/11/03 12:28:36;;;;;;;0.45;0.45;;;;;;;;;;1813814;77;26288;-86
2022/11/03 12:31:04;;;;;;;0.40;0.40;;;;;;;;;;1797850;77;25704;-88
2022/11/03 12:33:31;;;;;;;0.35;0.35;;;;;;;;;;1846888;75;26351;-88
2022/11/03 12:35:58;;;;;;;0.40;0.40;;;;;;;;;;1861036;75;26258;-91
2022/11/03 12:38:26;;;;;;;0.40;0.40;;;;;;;;;;1860723;77;26315;-87
2022/11/03 12:40:53;;;;;;;0.35;0.35;;;;;;;;;;1860503;76;26233;-88
2022/11/03 12:43:20;;;;;;;0.47;0.47;;;;;;;;;;1854969;76;26726;-87
2022/11/03 12:45:47;;;;;;;0.40;0.40;;;;;;;;;;1861443;75;26721;-87
2022/11/03 12:48:15;;;;;;;0.47;0.47;;;;;;;;;;1861653;77;26679;-90
2022/11/03 12:50:42;;;;;;;0.40;0.40;;;;;;;;;;1852709;75;26903;-87
2022/11/03 12:53:09;;;;;;;0.50;0.50;;;;;;;;;;1853397;76;26300;-88
2022/11/03 12:55:37;;;;;;;0.30;0.30;;;;;;;;;;1806074;77;26299;-88
2022/11/03 12:58:04;;;;;;;0.40;0.40;;;;;;;;;;1788859;79;26356;-88
2022/11/03 13:00:31;;;;;;;0.60;0.60;;;;;;;;;;1803309;78;26713;-90
2022/11/03 13:02:59;;;;;;;0.60;0.60;;;;;;;;;;1778846;80;26244;-88
2022/11/03 13:05:26;;;;;;;0.45;0.45;;;;;;;;;;1784031;79;26313;-88
2022/11/03 13:07:53;;;;;;;0.40;0.40;;;;;;;;;;1793007;78;26263;-87
2022/11/03 13:10:20;;;;;;;0.57;0.57;;;;;;;;;;1790954;79;26255;-88
2022/11/03 13:12:48;;;;;;;0.40;0.40;;;;;;;;;;1789975;79;26322;-89
2022/11/03 13:15:15;;;;;;;0.35;0.35;;;;;;;;;;1791888;77;26268;-88
2022/11/03 13:17:43;;;;;;;0.45;0.30;;;;;;;;;;1785673;79;26298;-89
2022/11/03 13:20:13;;;;;;;0.30;0.30;;;;;;;;;;1809418;79;26277;-88
2022/11/03 13:22:39;;;;;;;0.30;0.30;;;;;;;;;;1790264;78;26313;-88
2022/11/03 13:25:07;;;;;;;0.42;0.42;;;;;;;;;;1789213;77;26747;-91
2022/11/03 13:27:34;;;;;;;0.40;0.40;;;;;;;;;;1798751;77;26288;-89
2022/11/03 13:30:02;;;;;;;0.30;0.25;;;;;;;;;;1804559;77;26475;-88
2022/11/03 13:32:29;;;;;;;0.30;0.30;;;;;;;;;;1807163;77;26313;-87
2022/11/03 13:34:56;;;;;;;0.45;0.45;;;;;;;;;;1809696;79;26322;-87
2022/11/03 13:37:24;;;;;;;0.40;0.40;;;;;;;;;;1809395;78;26363;-88
2022/11/03 13:39:51;;;;;;;0.40;0.40;;;;;;;;;;1809425;77;26268;-88
2022/11/03 13:42:18;;;;;;;0.47;0.47;;;;;;;;;;1790433;78;26256;-88
2022/11/03 13:44:46;;;;;;;0.40;0.40;;;;;;;;;;1808899;79;26280;-87
2022/11/03 13:47:13;;;;;;;0.37;0.37;;;;;;;;;;1807872;78;26214;-89
2022/11/03 13:49:40;;;;;;;0.30;0.30;;;;;;;;;;1809623;78;25308;-92
2022/11/03 13:52:07;;;;;;;0.30;0.30;;;;;;;;;;1822421;77;26333;-88
2022/11/03 13:54:35;;;;;;;0.28;0.28;;;;;;;;;;1794984;79;25667;-88
2022/11/03 13:57:02;;;;;;;0.40;0.40;;;;;;;;;;1781859;78;25786;-87
2022/11/03 13:59:29;;;;;;;0.50;0.50;;;;;;;;;;1793467;79;26745;-87
2022/11/03 14:01:56;;;;;;;0.47;0.47;;;;;;;;;;1807313;77;26396;-91
2022/11/03 14:04:24;;;;;;;0.37;0.37;;;;;;;;;;1820620;77;26331;-88
2022/11/03 14:06:51;;;;;;;0.42;0.40;;;;;;;;;;1809038;78;26346;-87
2022/11/03 14:09:18;;;;;;;0.60;0.50;;;;;;;;;;1807727;78;25749;-87
2022/11/03 14:14:31;;;;;;;0.40;0.40;;;;;;;;;;1812800;77;26569;-87
2022/11/03 14:16:58;;;;;;;0.28;0.28;;;;;;;;;;1800148;79;26251;-88
2022/11/03 14:19:26;;;;;;;0.40;0.40;;;;;;;;;;1785105;78;26271;-87
2022/11/03 14:21:53;;;;;;;0.30;0.30;;;;;;;;;;1793658;78;26257;-90
2022/11/03 14:24:20;;;;;;;0.30;0.30;;;;;;;;;;1797448;79;26266;-88
2022/11/03 14:26:47;;;;;;;0.57;0.40;;;;;;;;;;1797443;77;26284;-88
2022/11/03 14:29:15;;;;;;;0.40;0.40;;;;;;;;;;1780500;78;26220;-87
2022/11/03 14:31:42;;;;;;;0.50;0.50;;;;;;;;;;1780459;78;26271;-89
2022/11/03 14:34:09;;;;;;;0.40;0.40;;;;;;;;;;1804480;79;26373;-89
2022/11/03 14:36:36;;;;;;;0.40;0.40;;;;;;;;;;1812356;79;26894;-87
2022/11/03 14:39:04;;;;;;;0.45;0.45;;;;;;;;;;1791015;77;26914;-87
2022/11/03 14:44:17;;;;;;;0.40;0.40;;;;;;;;;;1802053;79;26633;-87
2022/11/03 14:46:44;;;;;;;0.42;0.42;;;;;;;;;;1800269;79;25733;-88
2022/11/03 14:49:11;;;;;;;0.50;0.50;;;;;;;;;;1805126;77;25726;-87
2022/11/03 14:51:39;;;;;;;0.45;0.45;;;;;;;;;;1790418;78;26306;-88
2022/11/03 14:54:06;;;;;;;0.40;0.40;;;;;;;;;;1809074;79;26763;-87
2022/11/03 14:56:33;;;;;;;0.50;0.50;;;;;;;;;;1823309;77;26357;-88
2022/11/03 14:59:00;;;;;;;0.30;0.30;;;;;;;;;;1813140;79;26268;-87
2022/11/03 15:01:28;;;;;;;0.30;0.30;;;;;;;;;;1812847;78;25305;-90
2022/11/03 15:03:55;;;;;;;0.50;0.50;;;;;;;;;;1811454;77;26213;-88
2022/11/03 15:06:22;;;;;;;0.37;0.37;;;;;;;;;;1807709;77;26333;-90
2022/11/03 15:08:49;;;;;;;0.40;0.40;;;;;;;;;;1811837;79;26253;-87
2022/11/03 15:11:17;;;;;;;0.30;0.30;;;;;;;;;;1810691;78;25331;-87
2022/11/03 15:13:44;;;;;;;0.40;0.40;;;;;;;;;;1811241;79;26271;-87
2022/11/03 15:16:11;;;;;;;0.47;0.47;;;;;;;;;;1809968;77;26227;-89
2022/11/03 15:18:38;;;;;;;0.45;0.45;;;;;;;;;;1807042;77;26275;-88